Time;durP1;ratioP1;P1;durP2;ratioP2;P2;SDS_P1;SDS_P2;PMS_P1;PMS_P2;Temp;Humidity;BMP_temperature;BMP_pressure;BME280_temperature;BME280_humidity;BME280_pressure;Samples;Min_cycle;Max_cycle;Signal;HPM_P1;HPM_P2
2023/04/22 00:01:20;;;;;;;8.23;3.83;;;10.30;91.90;;;;;;5031736;28;20057;-60
2023/04/22 00:03:46;;;;;;;7.68;3.70;;;10.30;91.90;;;;;;5030522;28;20128;-60
2023/04/22 00:06:12;;;;;;;6.07;3.83;;;10.30;91.90;;;;;;5031748;28;20109;-60
2023/04/22 00:08:37;;;;;;;5.00;3.58;;;10.30;92.00;;;;;;5031677;28;20543;-61
2023/04/22 00:11:03;;;;;;;5.13;3.85;;;10.30;92.00;;;;;;5030856;28;20096;-60
2023/04/22 00:13:29;;;;;;;6.85;3.85;;;10.30;91.90;;;;;;5036138;28;20068;-60
2023/04/22 00:15:54;;;;;;;4.20;3.50;;;10.30;92.00;;;;;;5031932;28;20437;-60
2023/04/22 00:18:20;;;;;;;5.03;3.42;;;10.20;92.00;;;;;;5031127;28;20396;-60
2023/04/22 00:20:46;;;;;;;5.97;3.88;;;10.20;92.00;;;;;;5031666;28;20029;-60
2023/04/22 00:23:12;;;;;;;5.00;3.58;;;10.20;92.00;;;;;;5030858;28;20041;-60
2023/04/22 00:25:39;;;;;;;5.18;3.97;;;10.20;92.10;;;;;;5031667;28;20116;-61
2023/04/22 00:28:05;;;;;;;7.03;3.97;;;10.20;92.20;;;;;;5031428;28;20531;-60
2023/04/22 00:30:31;;;;;;;8.73;3.97;;;10.20;92.20;;;;;;5031565;28;20100;-60
2023/04/22 00:32:57;;;;;;;6.53;3.60;;;10.20;92.20;;;;;;5030686;28;20144;-61
2023/04/22 00:35:22;;;;;;;5.80;3.80;;;10.20;92.20;;;;;;5031465;28;20049;-60
2023/04/22 00:37:48;;;;;;;7.40;4.35;;;10.20;92.20;;;;;;5031282;28;20030;-61
2023/04/22 00:40:14;;;;;;;6.50;3.88;;;10.10;92.20;;;;;;5031185;28;20379;-60
2023/04/22 00:42:42;;;;;;;6.72;3.75;;;10.10;92.10;;;;;;5031221;28;20530;-61
2023/04/22 00:45:10;;;;;;;8.88;3.97;;;10.10;92.10;;;;;;5030918;28;20030;-61
2023/04/22 00:47:36;;;;;;;5.70;3.90;;;10.10;92.20;;;;;;5042998;28;20033;-61
2023/04/22 00:50:03;;;;;;;6.18;4.00;;;10.10;92.20;;;;;;5033391;28;20116;-61
2023/04/22 00:52:29;;;;;;;6.57;3.78;;;10.10;92.30;;;;;;5037385;28;20045;-60
2023/04/22 00:54:55;;;;;;;4.70;3.30;;;10.10;92.30;;;;;;5031034;28;20021;-60
2023/04/22 00:57:20;;;;;;;6.35;3.95;;;10.10;92.40;;;;;;5030882;28;20431;-60
2023/04/22 00:59:47;;;;;;;5.95;4.30;;;10.10;92.40;;;;;;5031041;28;20111;-60
2023/04/22 01:02:13;;;;;;;5.93;3.78;;;10.10;92.50;;;;;;5030821;28;20045;-60
2023/04/22 01:04:39;;;;;;;8.07;4.45;;;10.10;92.60;;;;;;5031094;28;20048;-60
2023/04/22 01:07:05;;;;;;;8.50;3.88;;;10.10;92.60;;;;;;5030753;28;20017;-60
2023/04/22 01:09:31;;;;;;;5.43;3.83;;;10.10;92.60;;;;;;5030174;28;20041;-60
2023/04/22 01:11:56;;;;;;;9.25;3.95;;;10.10;92.70;;;;;;5030520;28;20364;-60
2023/04/22 01:14:23;;;;;;;5.82;3.90;;;10.10;92.50;;;;;;5032332;28;20707;-61
2023/04/22 01:16:50;;;;;;;9.63;3.65;;;10.10;92.50;;;;;;5034905;28;20017;-60
2023/04/22 01:19:16;;;;;;;5.38;3.63;;;10.10;92.50;;;;;;5034400;28;20108;-59
2023/04/22 01:21:44;;;;;;;8.80;4.15;;;10.10;92.40;;;;;;5035194;28;20116;-56
2023/04/22 01:24:09;;;;;;;7.20;4.05;;;10.00;92.40;;;;;;5034635;28;20085;-57
2023/04/22 01:26:36;;;;;;;6.32;4.13;;;10.10;92.40;;;;;;5033193;28;20068;-63
2023/04/22 01:29:02;;;;;;;5.53;3.55;;;10.10;92.70;;;;;;5034698;28;20026;-62
2023/04/22 01:31:29;;;;;;;5.70;3.95;;;10.10;92.50;;;;;;5033585;28;20034;-64
2023/04/22 01:33:54;;;;;;;6.57;4.30;;;10.00;92.50;;;;;;5034246;28;20033;-63
2023/04/22 01:36:20;;;;;;;5.93;4.00;;;10.00;92.50;;;;;;5021522;28;20030;-61
2023/04/22 01:38:46;;;;;;;6.18;3.80;;;10.10;92.60;;;;;;5034509;28;20037;-62
2023/04/22 01:41:12;;;;;;;8.75;4.55;;;10.10;92.60;;;;;;5033712;28;20049;-61
2023/04/22 01:43:39;;;;;;;6.57;4.30;;;10.10;92.60;;;;;;5024067;28;20061;-61
2023/04/22 01:46:05;;;;;;;9.73;4.70;;;10.10;92.70;;;;;;5031220;28;20017;-59
2023/04/22 01:48:31;;;;;;;6.93;4.63;;;10.10;92.70;;;;;;5033729;28;20029;-59
2023/04/22 01:50:57;;;;;;;8.38;4.78;;;10.10;92.60;;;;;;5033131;28;20039;-58
2023/04/22 01:53:23;;;;;;;8.88;4.20;;;10.10;92.60;;;;;;5036240;28;20029;-59
2023/04/22 01:55:48;;;;;;;6.32;4.20;;;10.10;92.60;;;;;;5033746;28;20022;-59
2023/04/22 01:58:14;;;;;;;6.07;4.40;;;10.10;92.60;;;;;;5026422;28;20076;-58
2023/04/22 02:00:40;;;;;;;7.40;4.65;;;10.10;92.60;;;;;;5018340;28;20092;-60
2023/04/22 02:03:06;;;;;;;8.88;4.30;;;10.10;92.50;;;;;;5030147;28;20132;-60
2023/04/22 02:05:31;;;;;;;6.28;4.00;;;10.10;92.40;;;;;;5033428;28;20121;-64
2023/04/22 02:07:57;;;;;;;6.45;4.50;;;10.10;92.40;;;;;;5030434;28;20084;-65
2023/04/22 02:10:23;;;;;;;5.53;4.28;;;10.10;92.30;;;;;;5033506;28;20056;-55
2023/04/22 02:12:48;;;;;;;5.85;3.70;;;10.10;92.10;;;;;;5033384;28;20040;-54
2023/04/22 02:15:14;;;;;;;7.18;4.07;;;10.10;92.30;;;;;;5033148;28;20030;-57
2023/04/22 02:17:41;;;;;;;7.88;4.22;;;10.10;92.00;;;;;;5033337;28;20022;-56
2023/04/22 02:20:10;;;;;;;7.28;4.20;;;10.10;91.90;;;;;;5033428;28;20033;-54
2023/04/22 02:22:36;;;;;;;9.75;4.78;;;10.10;91.80;;;;;;5033107;28;20527;-57
2023/04/22 02:25:02;;;;;;;9.45;4.53;;;10.10;91.70;;;;;;5023260;28;20033;-58
2023/04/22 02:27:27;;;;;;;7.47;4.82;;;10.10;91.80;;;;;;5029446;28;20029;-61
2023/04/22 02:29:53;;;;;;;7.20;4.43;;;10.10;91.70;;;;;;5023136;28;20025;-60
2023/04/22 02:32:19;;;;;;;6.72;4.75;;;10.10;91.60;;;;;;5030078;28;20419;-57
2023/04/22 02:34:46;;;;;;;10.98;4.88;;;10.10;91.50;;;;;;5033077;28;20063;-58
2023/04/22 02:37:11;;;;;;;7.85;4.28;;;10.10;91.40;;;;;;5031174;28;20387;-59
2023/04/22 02:39:37;;;;;;;7.82;4.70;;;10.10;91.30;;;;;;5032925;28;20036;-60
2023/04/22 02:42:02;;;;;;;6.40;3.95;;;10.20;91.30;;;;;;5032363;28;20076;-60
2023/04/22 02:44:28;;;;;;;7.10;4.28;;;10.20;91.10;;;;;;5033011;28;20363;-59
2023/04/22 02:46:54;;;;;;;8.88;4.45;;;10.20;90.90;;;;;;5032634;28;20049;-62
2023/04/22 02:49:20;;;;;;;8.00;4.05;;;10.20;90.70;;;;;;5032725;28;20033;-62
2023/04/22 02:51:45;;;;;;;9.52;4.63;;;10.20;90.60;;;;;;5031744;28;20399;-60
2023/04/22 02:54:11;;;;;;;7.00;5.00;;;10.30;90.50;;;;;;5032662;28;20460;-60
2023/04/22 02:56:36;;;;;;;8.38;4.90;;;10.20;90.40;;;;;;5032949;28;20028;-59
2023/04/22 02:59:02;;;;;;;11.75;5.70;;;10.30;90.30;;;;;;5032735;28;20037;-59
2023/04/22 03:01:28;;;;;;;10.95;5.28;;;10.30;90.20;;;;;;5032136;28;20033;-64
2023/04/22 03:03:55;;;;;;;8.57;5.43;;;10.30;90.10;;;;;;5032570;28;20044;-65
2023/04/22 03:06:21;;;;;;;6.47;4.90;;;10.30;89.80;;;;;;5032269;28;20029;-57
2023/04/22 03:08:46;;;;;;;10.40;5.57;;;10.30;89.70;;;;;;5032121;28;20037;-58
2023/04/22 03:11:12;;;;;;;9.20;4.57;;;10.30;89.50;;;;;;5030264;28;20022;-60
2023/04/22 03:13:38;;;;;;;8.27;4.78;;;10.30;89.10;;;;;;5031876;28;20030;-60
2023/04/22 03:16:04;;;;;;;8.23;5.05;;;10.30;88.90;;;;;;5032379;28;20022;-57
2023/04/22 03:18:29;;;;;;;6.53;4.78;;;10.30;88.80;;;;;;5031092;28;20512;-59
2023/04/22 03:20:55;;;;;;;8.80;4.72;;;10.30;88.70;;;;;;5032519;28;20148;-64
2023/04/22 03:23:21;;;;;;;10.00;4.90;;;10.40;88.70;;;;;;5031091;28;20030;-65
2023/04/22 03:25:46;;;;;;;8.15;4.80;;;10.40;88.60;;;;;;5031282;28;20064;-63
2023/04/22 03:28:12;;;;;;;12.27;4.85;;;10.40;88.40;;;;;;5031196;28;20030;-63
2023/04/22 03:30:38;;;;;;;7.53;4.40;;;10.40;88.10;;;;;;5031664;28;20026;-58
2023/04/22 03:33:04;;;;;;;10.52;4.95;;;10.50;88.00;;;;;;5031659;28;20087;-59
2023/04/22 03:35:30;;;;;;;8.02;4.53;;;10.50;88.00;;;;;;5031527;28;20022;-63
2023/04/22 03:37:55;;;;;;;10.70;5.10;;;10.50;88.00;;;;;;5031683;28;20041;-62
2023/04/22 03:40:21;;;;;;;7.90;4.47;;;10.60;88.20;;;;;;5031440;28;20034;-62
2023/04/22 03:42:46;;;;;;;7.13;4.50;;;10.70;88.30;;;;;;5031567;28;20064;-63
2023/04/22 03:45:12;;;;;;;7.43;4.07;;;10.80;88.30;;;;;;5031562;28;20038;-63
2023/04/22 03:47:38;;;;;;;6.07;4.35;;;10.80;88.30;;;;;;5031434;28;20083;-60
2023/04/22 03:50:04;;;;;;;7.70;5.05;;;10.90;88.30;;;;;;5031275;28;20029;-60
2023/04/22 03:52:30;;;;;;;9.57;4.68;;;11.00;88.10;;;;;;5031832;28;20030;-55
2023/04/22 03:54:55;;;;;;;8.65;4.70;;;11.00;88.20;;;;;;5031278;28;20055;-56
2023/04/22 03:57:21;;;;;;;7.03;4.47;;;11.10;88.20;;;;;;5031391;28;20040;-61
2023/04/22 03:59:47;;;;;;;8.07;4.63;;;11.20;88.40;;;;;;5031216;28;20087;-60
2023/04/22 04:02:12;;;;;;;9.48;4.75;;;11.30;88.50;;;;;;5031315;28;20036;-61
2023/04/22 04:04:38;;;;;;;5.68;4.35;;;11.30;88.40;;;;;;5031130;28;20040;-61
2023/04/22 04:07:03;;;;;;;5.70;4.20;;;11.40;88.40;;;;;;5031373;28;20029;-60
2023/04/22 04:09:29;;;;;;;8.07;4.80;;;11.50;88.10;;;;;;5030017;28;20112;-61
2023/04/22 04:11:55;;;;;;;8.20;5.00;;;11.60;87.70;;;;;;5031631;28;20399;-60
2023/04/22 04:14:21;;;;;;;6.55;4.60;;;11.60;87.50;;;;;;5029972;28;20103;-60
2023/04/22 04:16:47;;;;;;;9.65;5.10;;;11.70;87.50;;;;;;5031878;28;20033;-60
2023/04/22 04:19:12;;;;;;;10.80;4.93;;;11.80;87.20;;;;;;5029446;28;20379;-60
2023/04/22 04:21:38;;;;;;;6.80;4.95;;;11.90;87.50;;;;;;5030902;28;20051;-60
2023/04/22 04:24:05;;;;;;;8.05;5.20;;;12.00;88.20;;;;;;5031163;28;20056;-61
2023/04/22 04:26:32;;;;;;;10.35;5.30;;;12.30;88.10;;;;;;5030926;28;20227;-61
2023/04/22 04:29:00;;;;;;;7.57;5.22;;;12.70;87.80;;;;;;5030506;28;20346;-61
2023/04/22 04:31:29;;;;;;;9.32;5.30;;;13.00;87.20;;;;;;5030847;28;20472;-60
2023/04/22 04:33:56;;;;;;;7.97;5.47;;;13.40;86.40;;;;;;5028390;28;20041;-60
2023/04/22 04:36:24;;;;;;;6.03;4.50;;;13.80;85.30;;;;;;5020820;28;20523;-60
2023/04/22 04:38:51;;;;;;;7.53;4.72;;;14.10;84.50;;;;;;5027820;28;20084;-61
2023/04/22 04:41:19;;;;;;;7.00;4.38;;;14.50;83.80;;;;;;5020468;28;20131;-60
2023/04/22 04:43:46;;;;;;;5.65;3.83;;;14.90;82.70;;;;;;5030737;28;20384;-60
2023/04/22 04:46:12;;;;;;;5.97;3.83;;;15.30;81.60;;;;;;5030362;28;20112;-61
2023/04/22 04:48:41;;;;;;;9.23;4.25;;;15.80;80.70;;;;;;5030383;28;20035;-60
2023/04/22 04:51:07;;;;;;;4.43;3.22;;;16.20;79.60;;;;;;5030391;28;20029;-61
2023/04/22 04:53:33;;;;;;;5.47;3.60;;;16.50;78.20;;;;;;5030238;28;20582;-60
2023/04/22 04:55:59;;;;;;;10.23;3.95;;;16.80;77.10;;;;;;5029907;28;20030;-60
2023/04/22 04:58:24;;;;;;;5.32;3.75;;;16.90;76.30;;;;;;5030210;28;20510;-60
2023/04/22 05:00:50;;;;;;;7.30;3.95;;;17.00;75.60;;;;;;5030805;28;20032;-60
2023/04/22 05:03:16;;;;;;;7.30;4.30;;;17.10;75.30;;;;;;5029241;28;20035;-60
2023/04/22 05:05:42;;;;;;;4.60;3.60;;;17.20;75.30;;;;;;5030567;28;20461;-64
2023/04/22 05:08:07;;;;;;;6.93;3.42;;;17.50;74.80;;;;;;5030542;28;20021;-65
2023/04/22 05:10:33;;;;;;;7.85;3.60;;;17.70;73.80;;;;;;5029930;28;20084;-58
2023/04/22 05:12:59;;;;;;;5.80;3.67;;;17.80;73.50;;;;;;5029901;28;20032;-58
2023/04/22 05:15:24;;;;;;;7.40;3.42;;;18.00;73.20;;;;;;5030431;28;20670;-57
2023/04/22 05:17:50;;;;;;;6.15;3.17;;;18.30;72.90;;;;;;5030869;28;20382;-58
2023/04/22 05:20:16;;;;;;;6.60;3.90;;;18.60;72.40;;;;;;5030669;28;20063;-57
2023/04/22 05:22:43;;;;;;;4.53;3.38;;;18.90;71.60;;;;;;5030795;28;20029;-57
2023/04/22 05:25:09;;;;;;;6.22;3.80;;;19.10;70.60;;;;;;5030272;28;20456;-59
2023/04/22 05:27:35;;;;;;;5.47;3.45;;;19.30;70.00;;;;;;5029994;28;20598;-58
2023/04/22 05:30:01;;;;;;;5.28;3.60;;;19.50;68.90;;;;;;5030879;28;20026;-57
2023/04/22 05:32:26;;;;;;;6.43;3.28;;;19.60;67.50;;;;;;5030057;28;20065;-63
2023/04/22 05:34:52;;;;;;;10.60;4.03;;;19.60;66.50;;;;;;5030457;28;20033;-63
2023/04/22 05:37:17;;;;;;;5.15;3.53;;;19.30;66.20;;;;;;5030111;28;20380;-64
2023/04/22 05:39:43;;;;;;;5.95;3.95;;;18.90;66.20;;;;;;5030352;28;20068;-64
2023/04/22 05:42:09;;;;;;;5.68;4.00;;;18.50;66.50;;;;;;5029319;28;20061;-64
2023/04/22 05:44:35;;;;;;;7.55;4.20;;;18.10;67.20;;;;;;5030619;28;20025;-64
2023/04/22 05:47:00;;;;;;;5.13;4.13;;;17.60;67.70;;;;;;5029785;28;20037;-64
2023/04/22 05:49:26;;;;;;;5.93;3.75;;;17.30;68.20;;;;;;5030074;28;20083;-65
2023/04/22 05:51:52;;;;;;;5.95;4.50;;;16.90;68.90;;;;;;5026448;28;20109;-59
2023/04/22 05:54:17;;;;;;;8.82;4.65;;;16.70;69.40;;;;;;5020657;28;20479;-59
2023/04/22 05:56:43;;;;;;;5.80;3.70;;;16.40;70.00;;;;;;5029804;28;20025;-54
2023/04/22 05:59:09;;;;;;;7.88;4.30;;;16.20;70.30;;;;;;5029596;28;20124;-56
2023/04/22 06:01:36;;;;;;;5.35;3.92;;;16.00;70.80;;;;;;5030273;28;20033;-60
2023/04/22 06:04:04;;;;;;;7.75;4.07;;;15.80;71.10;;;;;;5033675;28;20555;-60
2023/04/22 06:06:30;;;;;;;4.80;4.10;;;15.70;71.60;;;;;;5033290;28;20384;-60
2023/04/22 06:08:56;;;;;;;7.25;4.50;;;15.60;71.90;;;;;;5033801;28;20104;-59
2023/04/22 06:11:22;;;;;;;7.43;4.45;;;15.50;72.00;;;;;;5033096;28;20113;-60
2023/04/22 06:13:47;;;;;;;7.10;3.83;;;15.40;72.20;;;;;;5033750;28;20038;-61
2023/04/22 06:16:13;;;;;;;9.02;4.75;;;15.30;72.40;;;;;;5033314;28;20029;-60
2023/04/22 06:18:39;;;;;;;6.45;4.13;;;15.20;72.80;;;;;;5033853;28;20033;-60
2023/04/22 06:21:04;;;;;;;5.85;4.47;;;15.10;73.00;;;;;;5033656;28;20431;-61
2023/04/22 06:23:30;;;;;;;9.90;4.97;;;15.10;73.10;;;;;;5033231;28;20072;-60
2023/04/22 06:25:57;;;;;;;5.90;4.03;;;15.00;73.10;;;;;;5020901;28;20040;-63
2023/04/22 06:28:23;;;;;;;6.35;4.45;;;14.90;73.50;;;;;;5033401;28;20025;-63
2023/04/22 06:30:48;;;;;;;5.63;4.10;;;14.90;73.80;;;;;;5033661;28;20526;-62
2023/04/22 06:33:14;;;;;;;6.85;3.90;;;14.80;74.10;;;;;;5033026;28;20129;-63
2023/04/22 06:35:40;;;;;;;5.78;4.38;;;14.80;74.20;;;;;;5033174;28;20030;-65
2023/04/22 06:38:05;;;;;;;6.65;4.40;;;14.80;74.30;;;;;;5033124;28;20045;-65
2023/04/22 06:40:31;;;;;;;5.88;4.53;;;14.80;74.60;;;;;;5032637;28;20037;-65
2023/04/22 06:42:57;;;;;;;5.22;4.30;;;14.70;74.70;;;;;;5032901;28;20041;-65
2023/04/22 06:45:23;;;;;;;8.25;4.65;;;14.70;75.00;;;;;;5033127;28;20085;-57
2023/04/22 06:47:52;;;;;;;8.05;4.97;;;14.70;75.00;;;;;;5033304;28;20488;-55
2023/04/22 06:50:18;;;;;;;5.82;3.92;;;14.70;74.80;;;;;;5033447;28;20029;-57
2023/04/22 06:52:44;;;;;;;7.35;4.30;;;14.70;74.70;;;;;;5040997;28;20430;-57
2023/04/22 06:55:10;;;;;;;5.72;4.07;;;14.70;74.30;;;;;;5035479;28;20025;-57
2023/04/22 06:57:35;;;;;;;7.88;4.32;;;14.70;74.10;;;;;;5032597;28;20038;-62
2023/04/22 07:00:03;;;;;;;8.00;4.28;;;14.70;74.00;;;;;;5032951;28;20368;-61
2023/04/22 07:02:28;;;;;;;6.80;4.50;;;14.70;74.20;;;;;;5038100;28;20029;-63
2023/04/22 07:04:54;;;;;;;9.20;4.72;;;14.70;74.10;;;;;;5032565;28;20036;-62
2023/04/22 07:07:20;;;;;;;5.82;4.40;;;14.70;74.10;;;;;;5031543;28;20030;-62
2023/04/22 07:09:45;;;;;;;6.03;3.55;;;14.70;74.00;;;;;;5031582;28;20044;-62
2023/04/22 07:12:11;;;;;;;7.78;4.05;;;14.70;73.80;;;;;;5031367;28;20068;-62
2023/04/22 07:14:37;;;;;;;5.35;3.97;;;14.70;73.80;;;;;;5031968;28;20045;-62
2023/04/22 07:17:02;;;;;;;5.53;3.58;;;14.70;73.80;;;;;;5031946;28;20037;-64
2023/04/22 07:19:29;;;;;;;6.80;4.28;;;14.80;73.90;;;;;;5031109;28;20151;-65
2023/04/22 07:21:54;;;;;;;9.40;3.58;;;14.80;73.60;;;;;;5032902;28;20026;-62
2023/04/22 07:24:20;;;;;;;6.50;3.58;;;14.80;73.10;;;;;;5032154;28;20521;-63
2023/04/22 07:26:45;;;;;;;3.65;3.28;;;14.80;72.60;;;;;;5032899;28;20814;-54
2023/04/22 07:29:14;;;;;;;7.68;3.85;;;14.80;72.00;;;;;;5029270;28;20032;-56
2023/04/22 07:31:39;;;;;;;6.57;3.95;;;14.80;71.70;;;;;;5026271;28;22219;-60
2023/04/22 07:34:05;;;;;;;6.32;3.85;;;14.80;71.80;;;;;;5028151;28;20087;-60
2023/04/22 07:36:32;;;;;;;4.95;3.20;;;14.80;71.60;;;;;;5028727;28;20137;-60
2023/04/22 07:38:58;;;;;;;8.55;4.13;;;14.90;71.40;;;;;;5030228;28;20030;-61
2023/04/22 07:41:23;;;;;;;8.35;3.72;;;14.90;71.20;;;;;;5037633;28;20052;-62
2023/04/22 07:43:49;;;;;;;5.63;3.20;;;14.90;71.00;;;;;;5029511;28;20025;-62
2023/04/22 07:46:15;;;;;;;7.15;3.42;;;14.90;70.70;;;;;;5039963;28;20044;-62
2023/04/22 07:48:40;;;;;;;5.55;3.40;;;15.00;70.60;;;;;;5037342;28;20030;-62
2023/04/22 07:51:06;;;;;;;4.00;3.30;;;15.00;70.40;;;;;;5029369;28;20033;-62
2023/04/22 07:53:31;;;;;;;5.85;3.30;;;15.00;69.90;;;;;;5039336;28;20033;-62
2023/04/22 07:55:57;;;;;;;2.53;2.38;;;15.00;69.70;;;;;;5028608;28;20383;-62
2023/04/22 07:58:23;;;;;;;7.07;3.22;;;14.90;69.40;;;;;;5033408;28;20025;-62
2023/04/22 08:00:48;;;;;;;6.30;3.65;;;14.90;69.40;;;;;;5030860;28;20044;-62
2023/04/22 08:03:14;;;;;;;5.50;3.63;;;14.90;69.30;;;;;;5032783;28;20033;-62
2023/04/22 08:05:40;;;;;;;6.15;3.15;;;14.90;69.40;;;;;;5031073;28;20031;-62
2023/04/22 08:08:06;;;;;;;3.53;2.80;;;14.90;69.10;;;;;;5033473;28;20108;-61
2023/04/22 08:10:31;;;;;;;5.53;2.95;;;14.90;68.90;;;;;;5033440;28;20447;-63
2023/04/22 08:12:57;;;;;;;4.70;2.72;;;14.90;68.50;;;;;;5030291;28;20033;-62
2023/04/22 08:15:23;;;;;;;4.72;2.70;;;14.90;68.00;;;;;;5039668;28;20021;-62
2023/04/22 08:17:48;;;;;;;6.00;2.70;;;14.90;67.60;;;;;;5033171;28;20101;-62
2023/04/22 08:20:15;;;;;;;3.88;2.20;;;15.00;67.30;;;;;;5036493;28;20017;-62
2023/04/22 08:22:43;;;;;;;5.25;2.80;;;15.00;67.00;;;;;;5039313;28;20071;-62
2023/04/22 08:25:10;;;;;;;4.07;2.47;;;15.00;66.80;;;;;;5030887;28;20043;-62
2023/04/22 08:27:36;;;;;;;3.63;2.47;;;15.00;66.70;;;;;;5030718;28;20092;-62
2023/04/22 08:30:03;;;;;;;3.25;2.50;;;15.00;66.50;;;;;;5030247;28;20037;-63
2023/04/22 08:32:28;;;;;;;4.95;2.72;;;15.00;66.40;;;;;;5038059;28;20471;-62
2023/04/22 08:34:54;;;;;;;3.13;2.45;;;15.00;66.10;;;;;;5033730;28;20029;-62
2023/04/22 08:37:20;;;;;;;6.55;2.58;;;15.00;66.10;;;;;;5031953;28;20441;-62
2023/04/22 08:39:46;;;;;;;7.38;2.80;;;15.00;65.90;;;;;;5034757;28;20036;-62
2023/04/22 08:42:12;;;;;;;4.72;2.42;;;15.00;65.70;;;;;;5031924;28;20084;-64
2023/04/22 08:44:39;;;;;;;5.45;2.70;;;15.00;65.50;;;;;;5029322;28;20048;-64
2023/04/22 08:47:07;;;;;;;6.15;2.60;;;15.00;65.60;;;;;;5026364;28;20099;-65
2023/04/22 08:49:34;;;;;;;5.05;2.50;;;15.00;65.40;;;;;;5037642;28;20033;-65
2023/04/22 08:51:59;;;;;;;5.60;2.97;;;15.00;65.10;;;;;;5029555;28;20026;-65
2023/04/22 08:54:25;;;;;;;3.17;2.38;;;15.00;65.10;;;;;;5029305;28;20091;-65
2023/04/22 08:56:52;;;;;;;4.60;2.58;;;15.00;65.00;;;;;;5022808;28;20025;-54
2023/04/22 08:59:21;;;;;;;5.38;2.50;;;14.90;65.00;;;;;;5032336;28;20395;-58
2023/04/22 09:01:52;;;;;;;2.75;2.45;;;14.90;65.00;;;;;;5031315;28;20025;-54
2023/04/22 09:04:18;;;;;;;5.10;2.60;;;14.90;65.20;;;;;;5027592;28;20515;-54
2023/04/22 09:06:44;;;;;;;3.42;2.35;;;14.90;65.00;;;;;;5026216;28;20112;-60
2023/04/22 09:09:09;;;;;;;4.20;2.83;;;14.90;64.90;;;;;;5030305;28;20144;-60
2023/04/22 09:11:36;;;;;;;4.25;2.50;;;14.90;64.80;;;;;;5025097;28;20453;-59
2023/04/22 09:14:05;;;;;;;4.32;2.45;;;14.90;64.60;;;;;;5029228;28;20108;-60
2023/04/22 09:16:32;;;;;;;4.35;2.65;;;14.90;64.70;;;;;;5030675;28;20639;-59
2023/04/22 09:18:58;;;;;;;5.72;2.67;;;14.90;64.90;;;;;;5021809;28;20037;-60
2023/04/22 09:21:27;;;;;;;4.25;2.53;;;14.80;64.80;;;;;;5028977;28;20033;-59
2023/04/22 09:23:55;;;;;;;6.60;3.00;;;14.80;64.80;;;;;;5029431;28;20075;-59
2023/04/22 09:26:25;;;;;;;4.40;2.65;;;14.80;64.60;;;;;;5028718;28;20043;-63
2023/04/22 09:28:51;;;;;;;4.32;2.45;;;14.70;64.70;;;;;;5028257;28;20064;-63
2023/04/22 09:31:17;;;;;;;3.67;2.63;;;14.70;65.00;;;;;;5028210;28;20112;-57
2023/04/22 09:33:54;;;;;;;4.22;2.65;;;14.60;65.20;;;;;;5028199;28;20501;-56
2023/04/22 09:36:26;;;;;;;3.53;2.80;;;14.60;65.30;;;;;;5029470;28;20022;-60
2023/04/22 09:38:53;;;;;;;4.10;2.40;;;14.60;65.20;;;;;;5040563;28;20337;-60
2023/04/22 09:41:29;;;;;;;3.45;2.40;;;14.50;65.20;;;;;;5037021;28;20057;-61
2023/04/22 09:43:56;;;;;;;5.57;3.03;;;14.50;65.30;;;;;;5033907;28;20099;-60
2023/04/22 09:46:24;;;;;;;4.10;2.70;;;14.50;65.10;;;;;;5041758;28;20017;-60
2023/04/22 09:48:52;;;;;;;4.28;2.70;;;14.40;65.00;;;;;;5030016;28;20026;-60
2023/04/22 09:51:18;;;;;;;4.82;2.85;;;14.40;65.10;;;;;;5035968;28;20087;-54
2023/04/22 09:53:45;;;;;;;3.92;2.95;;;14.30;64.90;;;;;;5032850;28;20108;-54
2023/04/22 09:56:10;;;;;;;5.35;3.20;;;14.30;64.90;;;;;;5025285;28;20033;-59
2023/04/22 09:58:41;;;;;;;5.78;3.20;;;14.20;64.80;;;;;;5039799;28;20034;-59
2023/04/22 10:01:07;;;;;;;3.45;2.92;;;14.20;65.10;;;;;;5037038;28;20033;-64
2023/04/22 10:03:33;;;;;;;5.40;3.17;;;14.10;65.10;;;;;;5029535;28;20055;-65
2023/04/22 10:05:58;;;;;;;6.97;3.55;;;14.10;65.50;;;;;;5038337;28;20059;-62
2023/04/22 10:08:24;;;;;;;5.78;3.22;;;14.10;65.80;;;;;;5035302;28;20033;-63
2023/04/22 10:10:50;;;;;;;4.35;2.88;;;14.00;66.20;;;;;;5032622;28;20040;-58
2023/04/22 10:13:16;;;;;;;4.63;3.10;;;14.00;66.30;;;;;;5034715;28;20037;-58
2023/04/22 10:15:46;;;;;;;3.30;3.00;;;14.00;67.00;;;;;;5035764;28;20534;-61
2023/04/22 10:18:17;;;;;;;6.05;3.05;;;14.00;66.40;;;;;;5030362;28;20486;-60
2023/04/22 10:20:45;;;;;;;4.88;3.10;;;14.00;66.60;;;;;;5031345;28;20075;-59
2023/04/22 10:23:19;;;;;;;5.82;3.30;;;14.00;66.70;;;;;;5030517;28;20033;-58
2023/04/22 10:25:50;;;;;;;5.20;3.30;;;14.00;66.90;;;;;;5020105;28;20105;-60
2023/04/22 10:28:16;;;;;;;4.57;3.53;;;14.00;67.10;;;;;;5031387;28;20029;-59
2023/04/22 10:30:42;;;;;;;4.63;3.15;;;14.00;67.20;;;;;;5031578;28;20099;-59
2023/04/22 10:33:20;;;;;;;5.25;3.22;;;14.00;67.40;;;;;;5021909;28;20040;-60
2023/04/22 10:36:07;;;;;;;5.85;3.42;;;14.10;67.70;;;;;;5030280;28;20121;-65
2023/04/22 10:38:37;;;;;;;5.05;3.28;;;14.10;67.50;;;;;;5027437;28;20025;-64
2023/04/22 10:41:03;;;;;;;6.07;3.45;;;14.10;67.70;;;;;;5022798;28;20053;-61
2023/04/22 10:43:46;;;;;;;4.60;3.42;;;14.10;68.10;;;;;;5030591;28;20099;-60
2023/04/22 10:46:38;;;;;;;6.70;3.53;;;14.10;68.30;;;;;;5038753;28;20040;-60
2023/04/22 10:49:17;;;;;;;5.60;3.50;;;14.20;68.40;;;;;;5030215;28;20018;-61
2023/04/22 10:51:44;;;;;;;4.43;3.40;;;14.20;69.10;;;;;;5034753;28;20359;-60
2023/04/22 10:54:28;;;;;;;4.57;3.78;;;14.20;68.90;;;;;;5024237;28;20067;-59
2023/04/22 10:57:03;;;;;;;3.63;3.30;;;14.30;69.10;;;;;;5033048;28;20022;-59
2023/04/22 10:59:30;;;;;;;3.70;3.20;;;14.30;69.20;;;;;;5029034;28;20464;-59
2023/04/22 11:02:04;;;;;;;6.95;3.90;;;14.30;69.40;;;;;;5033181;28;20113;-60
2023/04/22 11:04:29;;;;;;;6.20;3.67;;;14.30;69.40;;;;;;5042749;28;20037;-60
2023/04/22 11:07:19;;;;;;;6.97;3.83;;;14.30;69.40;;;;;;5040727;28;20032;-59
2023/04/22 11:09:48;;;;;;;5.85;3.63;;;14.40;69.40;;;;;;5033530;28;20391;-59
2023/04/22 11:12:40;;;;;;;5.00;3.50;;;14.40;69.50;;;;;;5033311;28;20476;-59
2023/04/22 11:15:13;;;;;;;5.68;3.97;;;14.50;69.50;;;;;;5030799;28;20112;-60
2023/04/22 11:17:43;;;;;;;6.22;4.38;;;14.50;69.70;;;;;;5038062;28;20098;-61
2023/04/22 11:20:11;;;;;;;5.43;3.70;;;14.60;69.80;;;;;;5031635;28;20036;-61
2023/04/22 11:22:40;;;;;;;4.30;3.50;;;14.60;69.70;;;;;;5033987;28;20134;-54
2023/04/22 11:25:08;;;;;;;6.45;3.83;;;14.70;69.80;;;;;;5037794;28;20408;-56
2023/04/22 11:27:33;;;;;;;6.53;3.80;;;14.70;69.80;;;;;;5031170;28;20021;-54
2023/04/22 11:30:08;;;;;;;5.65;3.85;;;14.80;69.80;;;;;;5031106;28;20490;-55
2023/04/22 11:32:39;;;;;;;5.75;3.85;;;14.90;69.70;;;;;;5035302;28;20025;-57
2023/04/22 11:35:10;;;;;;;7.05;3.88;;;15.00;69.30;;;;;;5033014;28;20196;-59
2023/04/22 11:37:47;;;;;;;4.35;3.80;;;15.00;69.00;;;;;;5031412;28;20117;-59
2023/04/22 11:40:20;;;;;;;4.47;3.47;;;15.10;69.00;;;;;;5030803;28;20041;-59
2023/04/22 11:42:46;;;;;;;4.85;3.60;;;15.20;69.20;;;;;;5036953;28;20050;-59
2023/04/22 11:45:12;;;;;;;4.75;3.60;;;15.30;68.60;;;;;;5034044;28;20029;-58
2023/04/22 11:47:39;;;;;;;4.65;3.60;;;15.30;68.20;;;;;;5042889;28;20033;-59
2023/04/22 11:50:08;;;;;;;5.40;3.60;;;15.30;68.00;;;;;;5030516;28;20087;-59
2023/04/22 11:52:58;;;;;;;6.65;3.75;;;15.40;67.60;;;;;;5041115;28;20021;-60
2023/04/22 11:55:30;;;;;;;5.50;3.45;;;15.40;67.20;;;;;;5033721;28;20035;-62
2023/04/22 11:58:00;;;;;;;5.18;3.80;;;15.40;67.20;;;;;;5034842;28;20026;-60
2023/04/22 12:00:32;;;;;;;5.07;3.70;;;15.40;66.70;;;;;;5027896;28;20030;-61
2023/04/22 12:03:00;;;;;;;5.20;3.88;;;15.50;66.30;;;;;;5031888;28;20033;-61
2023/04/22 12:05:36;;;;;;;5.35;3.63;;;15.50;66.20;;;;;;5033376;28;20430;-61
2023/04/22 12:08:07;;;;;;;7.18;3.95;;;15.50;66.30;;;;;;5033090;28;20742;-61
2023/04/22 12:10:38;;;;;;;6.68;3.22;;;15.50;66.90;;;;;;5031913;28;20464;-61
2023/04/22 12:13:04;;;;;;;6.47;3.40;;;15.50;66.10;;;;;;5038516;28;20084;-61
2023/04/22 12:15:40;;;;;;;6.90;3.90;;;15.50;66.00;;;;;;5028504;28;20038;-61
2023/04/22 12:18:06;;;;;;;4.95;3.38;;;15.50;66.00;;;;;;5028868;28;20444;-61
2023/04/22 12:20:33;;;;;;;6.10;3.75;;;15.40;65.60;;;;;;5029747;28;20053;-61
2023/04/22 12:22:59;;;;;;;6.18;3.35;;;15.50;65.20;;;;;;5031827;28;20132;-61
2023/04/22 12:25:26;;;;;;;4.82;3.10;;;15.50;65.00;;;;;;5032146;28;20519;-61
2023/04/22 12:27:51;;;;;;;4.15;3.20;;;15.50;64.90;;;;;;5030458;28;20467;-61
2023/04/22 12:30:17;;;;;;;3.97;3.17;;;15.60;64.70;;;;;;5027829;28;20037;-60
2023/04/22 12:32:43;;;;;;;6.03;3.63;;;15.60;64.20;;;;;;5033423;28;20040;-61
2023/04/22 12:35:08;;;;;;;4.45;3.00;;;15.70;63.60;;;;;;5028647;28;20494;-61
2023/04/22 12:37:34;;;;;;;3.67;2.53;;;15.80;63.40;;;;;;5030459;28;20044;-60
2023/04/22 12:40:00;;;;;;;3.90;3.13;;;15.80;63.00;;;;;;5028715;28;20044;-61
2023/04/22 12:42:25;;;;;;;3.63;2.72;;;15.90;62.90;;;;;;5029111;28;20049;-61
2023/04/22 12:44:51;;;;;;;4.05;2.75;;;15.90;62.40;;;;;;5031981;28;20040;-61